Latest Weather Observations for Liawenee

IDT60801

Issued at 10:01 pm EST Monday 27 April 2015 (issued every 30 minutes, with the page automatically refreshed every 10 minutes)

About weather observations | Map of weather stations | Latest weather observations for TAS | Other Formats
Station Details ID: 096033 Name: LIAWENEE Lat: -41.90 Lon: 146.67 Height: 1057.0 m
Data from the previous 72 hours. | See also: Recent months at Liawenee
Date/Time
EST
Temp
°C
App
Temp
°C
Dew
Point
Rel
Hum
%
Delta-T
°C
Wind Press
QNH
hPa
Press
MSL
hPa
Rain
since 9 am
mm
Dir
 
Spd
km/h
Gust
km/h
Spd
kts
Gust
kts
27/10:00pm 2.5 -1.0 1.5 93 0.4 WSW 9 15 5 8 1022.9 1023.1 0.0
27/09:30pm 2.4 -0.7 1.5 94 0.4 WSW 7 11 4 6 1022.6 1022.8 0.0
27/09:00pm 1.8 0.0 1.2 96 0.2 CALM 0 0 0 0 1022.5 1022.7 0.0
27/08:30pm 1.1 -2.0 0.1 93 0.4 SSE 6 11 3 6 1021.7 1021.9 0.0
27/08:00pm 2.2 -2.9 1.0 92 0.5 SW 17 24 9 13 1021.4 1021.5 0.0
27/07:30pm 3.4 -1.9 1.8 89 0.7 SW 19 24 10 13 1021.5 1021.7 0.0
27/07:00pm 3.5 -1.4 2.0 90 0.6 SSW 17 22 9 12 1021.2 1021.3 0.0
27/06:30pm 3.6 -1.0 1.5 86 0.9 SW 15 20 8 11 1020.7 1020.9 0.0
27/06:00pm 4.1 -1.3 1.5 83 1.1 SSW 19 22 10 12 1020.5 1020.6 0.0
27/05:30pm 4.4 -1.6 1.1 79 1.4 SSW 22 32 12 17 1020.2 1020.3 0.0
27/05:00pm 4.9 -0.1 1.4 78 1.5 S 17 24 9 13 1019.7 1019.8 0.0
27/04:30pm 5.7 0.1 1.4 74 1.8 SSW 20 28 11 15 1019.4 1019.5 0.0
27/04:00pm 5.3 -1.1 0.7 72 1.9 SW 24 35 13 19 1019.0 1019.1 0.0
27/03:30pm 7.3 1.0 1.8 68 2.4 SW 24 32 13 17 1018.5 1018.6 0.0
27/03:00pm 7.2 1.7 2.1 70 2.2 SSW 20 28 11 15 1018.4 1018.5 0.0
27/02:30pm 6.6 -0.1 1.7 71 2.1 SSW 26 33 14 18 1018.3 1018.4 0.0
27/02:00pm 6.9 -0.2 1.6 69 2.3 SSW 28 39 15 21 1018.2 1018.3 0.0
27/01:30pm 6.1 -0.9 1.8 74 1.9 SW 28 35 15 19 1018.3 1018.4 0.0
27/01:00pm 6.4 -1.1 0.9 68 2.3 SW 30 37 16 20 1018.2 1018.3 0.0
27/12:30pm 7.4 0.3 1.5 66 2.6 SSW 28 39 15 21 1018.3 1018.4 0.0
27/12:00pm 6.8 -0.7 1.1 67 2.4 SW 30 39 16 21 1018.2 1018.3 0.0
27/11:30am 6.8 -0.7 1.5 69 2.3 SW 30 35 16 19 1018.4 1018.5 0.0
27/11:00am 5.2 -2.0 0.6 72 1.9 SW 28 39 15 21 1018.4 1018.5 0.0
27/10:30am 5.4 -2.4 1.7 77 1.6 SW 32 39 17 21 1018.0 1018.0 0.0
27/10:00am 5.5 -1.5 1.8 77 1.6 WSW 28 39 15 21 1018.0 1018.0 0.0
27/09:30am 4.0 -2.3 1.5 84 1.0 SW 24 37 13 20 1018.0 1018.0 0.0
27/09:00am 2.2 -1.2 1.6 96 0.2 WSW 9 15 5 8 1017.8 1017.9 0.0
27/08:30am 2.1 -1.4 1.2 94 0.4 SW 9 15 5 8 1017.6 1017.7 0.0
27/08:00am 1.7 -2.3 0.8 94 0.4 WSW 11 15 6 8 1017.3 1017.3 0.0
27/07:30am 1.4 -3.0 0.4 93 0.4 WSW 13 19 7 10 1016.6 1016.7 0.0
27/07:00am 1.9 -3.6 0.9 93 0.4 SW 19 28 10 15 1016.2 1016.2 0.0
27/06:30am 2.0 -3.5 0.8 92 0.5 SW 19 28 10 15 1015.9 1015.9 0.0
27/06:00am 1.9 -3.7 0.9 93 0.4 SW 20 30 11 16 1015.6 1015.6 0.0
27/05:30am 1.8 -4.2 1.1 95 0.3 SW 22 32 12 17 1015.4 1015.4 0.0
27/05:00am 1.8 -4.6 0.8 93 0.4 SW 24 35 13 19 1015.2 1015.2 0.0
27/04:30am 1.7 -5.1 0.8 94 0.4 SW 26 35 14 19 1014.7 1014.7 0.0
27/04:00am 1.9 -5.3 0.7 92 0.5 SW 28 39 15 21 1014.5 1014.5 0.0
27/03:30am 1.8 -5.0 0.6 92 0.5 SW 26 37 14 20 1014.3 1014.3 0.0
27/03:00am 1.8 -5.0 0.6 92 0.5 SW 26 37 14 20 1014.2 1014.2 0.0
27/02:30am 1.8 -4.7 0.5 91 0.5 SW 24 35 13 19 1014.1 1014.1 0.0
27/02:00am 1.6 -4.5 0.1 90 0.6 SW 22 32 12 17 1014.3 1014.3 0.0
27/01:30am 1.6 -4.5 0.3 91 0.5 SW 22 32 12 17 1014.3 1014.3 0.0
27/01:00am 1.8 -4.6 0.8 93 0.4 SW 24 35 13 19 1014.2 1014.2 0.0
27/12:30am 1.8 -5.3 1.1 95 0.3 SW 28 37 15 20 1013.9 1013.8 0.0
27/12:00am 1.8 -4.6 0.9 94 0.4 WSW 24 33 13 18 1013.7 1013.7 0.0
 
Date/Time
EST
Temp
°C
App
Temp
°C
Dew
Point
Rel
Hum
%
Delta-T
°C
Wind Press
QNH
hPa
Press
MSL
hPa
Rain
since 9 am
mm
Dir
 
Spd
km/h
Gust
km/h
Spd
kts
Gust
kts
26/11:30pm 1.9 -5.3 0.7 92 0.5 SW 28 39 15 21 1013.7 1013.7 0.0
26/11:00pm 1.6 -5.2 0.6 93 0.4 SW 26 41 14 22 1013.5 1013.5 0.0
26/10:30pm 1.9 -4.1 1.0 94 0.4 SW 22 33 12 18 1013.5 1013.5 0.0
26/10:00pm 1.9 -4.5 0.9 93 0.4 SW 24 35 13 19 1013.7 1013.7 0.0
26/09:30pm 2.2 -4.1 1.3 94 0.4 SW 24 35 13 19 1013.7 1013.7 0.0
26/09:00pm 2.3 -4.8 1.6 95 0.3 SW 28 43 15 23 1013.3 1013.3 0.0
26/08:30pm 2.4 -3.5 1.5 94 0.4 SW 22 32 12 17 1013.4 1013.4 0.0
26/08:00pm 2.6 -3.7 1.7 94 0.4 SW 24 37 13 20 1013.2 1013.1 0.0
26/07:30pm 2.7 -2.5 2.3 97 0.2 SW 19 28 10 15 1013.2 1013.1 0.0
26/07:00pm 2.8 -3.0 2.2 96 0.3 SW 22 30 12 16 1012.7 1012.7 0.0
26/06:30pm 3.0 -3.6 2.0 93 0.4 WSW 26 35 14 19 1012.5 1012.5 0.0
26/06:00pm 3.2 -3.0 2.2 93 0.4 WSW 24 33 13 18 1012.3 1012.2 0.0
26/05:30pm 3.4 -3.9 2.2 92 0.5 SW 30 41 16 22 1012.2 1012.1 0.0
26/05:00pm 4.2 -2.8 1.9 85 1.0 WSW 28 37 15 20 1011.8 1011.7 0.0
26/04:30pm 4.5 -2.5 2.0 84 1.1 SW 28 41 15 22 1011.4 1011.3 0.0
26/04:00pm 5.2 -1.5 1.7 78 1.5 WSW 26 33 14 18 1011.4 1011.3 0.0
26/03:30pm 5.1 -0.7 2.1 81 1.3 SW 22 30 12 16 1011.4 1011.3 0.0
26/03:00pm 5.7 -1.6 2.2 78 1.5 SW 30 37 16 20 1011.3 1011.2 0.0
26/02:30pm 5.8 -1.3 1.3 73 1.9 SW 28 41 15 22 1011.3 1011.2 0.0
26/02:00pm 6.1 -1.4 1.4 72 2.0 WSW 30 39 16 21 1011.4 1011.3 0.0
26/01:30pm 6.0 -2.1 1.0 70 2.1 WSW 33 44 18 24 1011.3 1011.2 0.0
26/01:00pm 5.7 -1.8 1.4 74 1.8 SW 30 43 16 23 1011.4 1011.3 0.0
26/12:30pm 5.7 -1.8 1.2 73 1.9 WSW 30 43 16 23 1011.4 1011.3 0.0
26/12:00pm 5.6 -3.2 1.5 75 1.8 WSW 37 48 20 26 1011.6 1011.6 0.0
26/11:30am 4.9 -3.0 1.0 76 1.6 WSW 32 44 17 24 1011.9 1011.8 0.0
26/11:00am 4.3 -3.2 1.5 82 1.2 WSW 30 41 16 22 1012.0 1011.9 0.0
26/10:30am 4.1 -3.4 1.0 80 1.3 WSW 30 39 16 21 1012.0 1011.9 0.0
26/10:00am 2.7 -4.5 0.4 85 0.9 SW 28 41 15 22 1012.1 1012.0 0.0
26/09:30am 2.2 -4.2 0.7 90 0.6 WSW 24 33 13 18 1012.3 1012.2 0.0
26/09:00am 1.6 -4.9 0.6 93 0.4 SW 24 35 13 19 1012.5 1012.5 0.0
26/08:30am 1.1 -5.4 0.5 96 0.2 SW 24 32 13 17 1012.4 1012.4 0.0
26/08:00am 1.1 -4.6 0.7 97 0.2 WSW 20 28 11 15 1012.3 1012.2 0.0
26/07:30am 0.7 -6.2 0.3 97 0.2 WSW 26 37 14 20 1012.0 1011.9 0.0
26/07:00am 0.5 -5.1 0.1 97 0.2 SW 19 28 10 15 1011.8 1011.7 0.0
26/06:30am 0.3 -5.5 -0.1 97 0.2 WSW 20 30 11 16 1011.5 1011.4 0.0
26/06:00am 0.1 -6.1 -0.3 97 0.2 WSW 22 30 12 16 1011.5 1011.4 0.0
26/05:30am 0.4 -5.7 0.3 99 0.0 SW 22 30 12 16 1011.2 1011.1 0.0
26/05:00am 1.0 -4.6 0.9 99 0.0 SW 20 32 11 17 1011.2 1011.1 0.0
26/04:30am 1.4 -4.0 1.3 99 0.0 SW 19 24 10 13 1011.2 1011.1 0.0
26/04:00am 1.7 -2.9 1.6 99 0.0 SW 15 17 8 9 1011.2 1011.1 0.0
26/03:30am 2.0 -2.9 1.9 99 0.0 SSW 17 20 9 11 1011.2 1011.1 0.0
26/03:00am 2.4 -0.9 2.3 99 0.0 SSW 9 11 5 6 1011.2 1011.1 0.0
26/02:30am 2.5 -1.2 2.2 98 0.1 SSW 11 13 6 7 1011.3 1011.2 0.0
26/02:00am 2.9 -0.4 2.6 98 0.1 SSW 9 13 5 7 1011.4 1011.3 0.0
26/01:30am 3.1 -0.9 2.8 98 0.1 SSW 13 17 7 9 1011.6 1011.6 0.0
26/01:00am 3.5 -0.1 3.2 98 0.1 SW 11 13 6 7 1011.4 1011.3 0.0
26/12:30am 3.6 0.4 3.3 98 0.1 WSW 9 13 5 7 1011.5 1011.4 0.0
26/12:00am 3.7 0.6 3.4 98 0.1 WSW 9 11 5 6 1011.5 1011.4 0.0
 
Date/Time
EST
Temp
°C
App
Temp
°C
Dew
Point
Rel
Hum
%
Delta-T
°C
Wind Press
QNH
hPa
Press
MSL
hPa
Rain
since 9 am
mm
Dir
 
Spd
km/h
Gust
km/h
Spd
kts
Gust
kts
25/11:30pm 4.0 1.3 3.7 98 0.1 SSW 7 13 4 7 1011.4 1011.3 0.0
25/11:00pm 4.0 1.3 3.6 97 0.2 SSW 7 9 4 5 1011.5 1011.4 0.0
25/10:30pm 4.2 1.7 3.8 97 0.2 S 6 9 3 5 1011.8 1011.7 0.0
25/10:00pm 4.3 1.6 3.9 97 0.2 SSW 7 9 4 5 1011.8 1011.7 0.0
25/09:30pm 4.4 1.4 4.0 97 0.2 SSW 9 11 5 6 1011.9 1011.8 0.0
25/09:00pm 4.7 1.0 4.3 97 0.2 S 13 15 7 8 1011.9 1011.8 0.0
25/08:30pm 5.1 2.2 4.7 97 0.2 SW 9 13 5 7 1011.8 1011.7 0.0
25/08:00pm 5.5 2.3 4.9 96 0.3 SSW 11 15 6 8 1011.4 1011.3 0.0
25/07:30pm 6.0 3.2 5.0 93 0.5 SSW 9 15 5 8 1011.3 1011.2 0.0
25/07:00pm 6.3 4.4 5.1 92 0.6 SSE 4 9 2 5 1011.0 1010.9 0.0
25/06:30pm 6.3 3.8 4.8 90 0.7 SSE 7 7 4 4 1010.8 1010.7 0.0
25/06:00pm 6.8 4.4 4.5 85 1.1 S 6 7 3 4 1010.4 1010.3 0.0
25/05:30pm 7.0 4.0 4.3 83 1.2 SSE 9 13 5 7 1010.0 1009.9 0.0
25/05:00pm 7.4 4.1 4.4 81 1.4 SSE 11 15 6 8 1009.6 1009.5 0.0
25/04:30pm 8.3 4.7 4.9 79 1.6 S 13 17 7 9 1009.4 1009.3 0.0
25/04:00pm 9.1 6.2 4.5 73 2.2 SW 9 17 5 9 1009.3 1009.2 0.0
25/03:30pm 10.4 8.0 5.2 70 2.5 S 7 13 4 7 1009.1 1008.9 0.0
25/03:00pm 10.2 6.6 5.2 71 2.4 S 13 19 7 10 1009.1 1008.9 0.0
25/02:30pm 10.1 7.2 4.5 68 2.7 S 9 17 5 9 1008.9 1008.7 0.0
25/02:00pm 8.8 5.9 4.6 75 2.0 SSW 9 15 5 8 1008.9 1008.7 0.0
25/01:30pm 8.0 5.5 4.0 76 1.8 SSE 6 9 3 5 1009.0 1008.8 0.0
25/01:00pm 7.9 5.3 4.3 78 1.7 ESE 7 13 4 7 1009.0 1008.8 0.0
25/12:30pm 7.8 4.5 4.6 80 1.5 ESE 11 15 6 8 1009.1 1008.9 0.0
25/12:00pm 7.7 4.8 4.8 82 1.4 SE 9 17 5 9 1009.1 1008.9 0.0
25/11:30am 7.3 3.6 4.4 82 1.3 SE 13 17 7 9 1009.2 1009.1 0.0
25/11:00am 7.4 4.1 4.7 83 1.3 SE 11 15 6 8 1009.1 1008.9 0.0
25/10:30am 7.3 5.0 4.9 85 1.1 SSE 6 13 3 7 1009.0 1008.8 0.0
25/10:00am 7.2 4.0 5.2 87 0.9 SSE 11 15 6 8 1008.9 1008.7 0.0
25/09:30am 5.9 3.0 4.9 93 0.5 S 9 13 5 7 1008.9 1008.7 0.0
25/09:00am 5.5 3.2 4.9 96 0.3 S 6 9 3 5 1008.8 1008.6 1.0
25/08:30am 5.2 2.3 4.8 97 0.2 SSW 9 13 5 7 1008.6 1008.5 1.0
25/08:00am 4.9 2.0 4.6 98 0.1 SW 9 11 5 6 1008.3 1008.2 1.0
25/07:30am 4.6 1.3 4.3 98 0.1 SW 11 13 6 7 1008.0 1007.8 1.0
25/07:00am 4.1 1.0 3.7 97 0.2 S 9 11 5 6 1007.7 1007.5 1.0
25/06:30am 4.3 1.3 3.9 97 0.2 SSW 9 11 5 6 1007.3 1007.1 1.0
25/06:00am 4.4 1.4 4.1 98 0.1 SSW 9 11 5 6 1006.9 1006.7 1.0
25/05:30am 4.4 0.6 4.1 98 0.1 SSW 13 17 7 9 1006.7 1006.5 1.0
25/05:00am 4.4 0.3 4.1 98 0.1 SW 15 20 8 11 1006.2 1006.0 1.0
25/04:30am 4.4 1.0 4.0 97 0.2 SW 11 15 6 8 1005.8 1005.5 1.0
25/04:00am 4.5 1.1 4.1 97 0.2 WSW 11 15 6 8 1005.4 1005.2 1.0
25/03:30am 4.6 1.2 4.2 97 0.2 SW 11 13 6 7 1005.3 1005.1 1.0
25/03:00am 4.8 1.5 4.4 97 0.2 SSW 11 15 6 8 1005.2 1005.0 1.0
25/02:30am 5.2 2.7 4.8 97 0.2 SSW 7 11 4 6 1005.3 1005.1 1.0
25/02:00am 5.4 2.5 4.8 96 0.3 SW 9 11 5 6 1005.2 1005.0 1.0
25/01:30am 5.6 2.4 5.2 97 0.2 WSW 11 15 6 8 1005.2 1005.0 1.0
25/01:00am 5.5 2.3 5.1 97 0.2 WSW 11 17 6 9 1005.0 1004.7 1.0
25/12:30am 5.6 2.0 5.2 97 0.2 WSW 13 17 7 9 1004.9 1004.6 1.0
25/12:00am 5.9 2.4 5.5 97 0.2 WSW 13 15 7 8 1004.8 1004.5 1.0
 
Date/Time
EST
Temp
°C
App
Temp
°C
Dew
Point
Rel
Hum
%
Delta-T
°C
Wind Press
QNH
hPa
Press
MSL
hPa
Rain
since 9 am
mm
Dir
 
Spd
km/h
Gust
km/h
Spd
kts
Gust
kts
24/11:30pm 6.0 3.3 5.7 98 0.1 WSW 9 13 5 7 1004.8 1004.5 1.0
24/11:00pm 6.0 3.3 5.6 97 0.2 WSW 9 13 5 7 1004.7 1004.4 1.0
24/10:30pm 6.1 3.0 5.7 97 0.2 WSW 11 13 6 7 1004.7 1004.4 1.0

Other Formats:

Comma delimited format used in spreadsheet applications
http://www.bom.gov.au/fwo/IDT60801/IDT60801.95959.axf

JavaScript Object Notation format (JSON) in row-major order
http://www.bom.gov.au/fwo/IDT60801/IDT60801.95959.json